Time;durP1;ratioP1;P1;durP2;ratioP2;P2;SDS_P1;SDS_P2;PMS_P1;PMS_P2;Temp;Humidity;BMP_temperature;BMP_pressure;BME280_temperature;BME280_humidity;BME280_pressure;Samples;Min_cycle;Max_cycle;Signal;HPM_P1;HPM_P2
2022/06/21 00:01:18;;;;;;;15.27;3.80;;;10.80;99.90;;;;;;5072930;28;20040;-75
2022/06/21 00:03:45;;;;;;;16.73;4.00;;;10.80;99.90;;;;;;5072130;28;20044;-76
2022/06/21 00:06:18;;;;;;;12.02;3.90;;;10.70;99.90;;;;;;5071036;28;20052;-74
2022/06/21 00:08:44;;;;;;;13.50;3.60;;;10.70;99.90;;;;;;5071974;28;20037;-76
2022/06/21 00:11:32;;;;;;;17.60;3.85;;;10.70;99.90;;;;;;5071907;28;20052;-74
2022/06/21 00:13:58;;;;;;;13.95;4.03;;;10.60;99.90;;;;;;5072746;28;20130;-74
2022/06/21 00:16:28;;;;;;;11.23;3.50;;;10.60;99.90;;;;;;5071710;28;20150;-75
2022/06/21 00:18:54;;;;;;;18.52;4.50;;;10.60;99.90;;;;;;5071866;28;20041;-74
2022/06/21 00:21:34;;;;;;;16.37;4.10;;;10.60;99.90;;;;;;5070809;28;20396;-74
2022/06/21 00:24:00;;;;;;;12.23;3.88;;;10.50;99.90;;;;;;5071912;28;20036;-73
2022/06/21 00:26:28;;;;;;;14.82;3.88;;;10.60;99.90;;;;;;5071819;28;20048;-74
2022/06/21 00:28:54;;;;;;;14.05;4.20;;;10.80;99.90;;;;;;5071787;28;20048;-74
2022/06/21 00:31:32;;;;;;;13.40;4.20;;;10.40;99.90;;;;;;5070572;28;20052;-74
2022/06/21 00:34:05;;;;;;;12.82;4.28;;;10.30;99.90;;;;;;5072524;28;20040;-74
2022/06/21 00:36:35;;;;;;;13.77;3.55;;;10.30;99.90;;;;;;5074331;28;20052;-74
2022/06/21 00:39:02;;;;;;;15.45;3.63;;;10.30;99.90;;;;;;5074364;28;20136;-74
2022/06/21 00:41:49;;;;;;;19.65;4.85;;;10.20;99.90;;;;;;5073979;28;20057;-75
2022/06/21 00:44:22;;;;;;;16.45;4.05;;;10.20;99.90;;;;;;5074617;28;20049;-75
2022/06/21 00:47:25;;;;;;;17.13;4.05;;;10.20;99.90;;;;;;5058032;28;20495;-75
2022/06/21 00:49:57;;;;;;;16.10;3.88;;;10.10;99.90;;;;;;5064021;28;20398;-75
2022/06/21 00:52:36;;;;;;;12.30;4.38;;;10.10;99.90;;;;;;5075261;28;20138;-74
2022/06/21 00:55:20;;;;;;;17.55;4.30;;;10.10;99.90;;;;;;5075186;28;20048;-75
2022/06/21 00:57:53;;;;;;;18.92;4.63;;;10.00;99.90;;;;;;5075621;28;20052;-77
2022/06/21 01:00:49;;;;;;;12.50;4.43;;;10.00;99.90;;;;;;5074139;28;20060;-75
2022/06/21 01:03:19;;;;;;;13.40;4.57;;;10.10;99.90;;;;;;5075164;28;20080;-75
2022/06/21 01:05:46;;;;;;;15.68;4.55;;;10.00;99.90;;;;;;5075112;28;20082;-78
2022/06/21 01:08:17;;;;;;;9.35;3.42;;;10.00;99.90;;;;;;5075615;28;20067;-75
2022/06/21 01:10:47;;;;;;;15.05;4.95;;;10.00;99.90;;;;;;5074305;28;20056;-75
2022/06/21 01:13:18;;;;;;;16.25;4.10;;;10.00;99.90;;;;;;5073871;28;20052;-75
2022/06/21 01:15:47;;;;;;;14.50;4.43;;;10.00;99.90;;;;;;5074004;28;20041;-74
2022/06/21 01:18:16;;;;;;;17.33;4.30;;;9.90;99.90;;;;;;5074225;28;20040;-73
2022/06/21 01:20:50;;;;;;;16.08;4.15;;;9.90;99.90;;;;;;5074204;28;20457;-75
2022/06/21 01:23:30;;;;;;;20.00;5.07;;;9.90;99.90;;;;;;5073434;28;20380;-73
2022/06/21 01:26:31;;;;;;;17.00;5.15;;;9.90;99.90;;;;;;5074744;28;20051;-73
2022/06/21 01:29:01;;;;;;;16.67;5.55;;;10.40;99.90;;;;;;5074388;28;20127;-73
2022/06/21 01:31:28;;;;;;;17.13;4.20;;;;;;;;;;5072999;28;20040;-73
2022/06/21 01:33:53;;;;;;;10.27;4.50;;;9.80;99.90;;;;;;5074612;28;20052;-73
2022/06/21 01:36:28;;;;;;;17.30;5.15;;;9.70;99.90;;;;;;5073485;28;20036;-74
2022/06/21 01:39:01;;;;;;;15.73;4.68;;;9.70;99.90;;;;;;5074740;28;20404;-74
2022/06/21 01:41:33;;;;;;;16.33;4.03;;;9.70;99.90;;;;;;5076320;28;20055;-76
2022/06/21 01:44:03;;;;;;;17.67;4.93;;;9.60;99.90;;;;;;5074191;28;20037;-76
2022/06/21 01:46:31;;;;;;;12.73;4.80;;;9.60;99.90;;;;;;5075691;28;20062;-76
2022/06/21 01:49:08;;;;;;;15.00;5.30;;;9.60;99.90;;;;;;5057586;28;20045;-75
2022/06/21 01:51:40;;;;;;;13.60;5.00;;;9.60;99.90;;;;;;5075324;28;20392;-76
2022/06/21 01:54:09;;;;;;;20.17;5.43;;;9.50;99.90;;;;;;5074190;28;20496;-74
2022/06/21 01:56:38;;;;;;;16.90;5.78;;;9.50;99.90;;;;;;5056524;28;20076;-75
2022/06/21 01:59:17;;;;;;;17.15;5.25;;;9.40;99.90;;;;;;5075117;28;20044;-76
2022/06/21 02:01:48;;;;;;;15.02;5.00;;;9.40;99.90;;;;;;5075284;28;20472;-76
2022/06/21 02:04:19;;;;;;;15.35;5.47;;;9.40;99.90;;;;;;5073569;28;20151;-75
2022/06/21 02:06:46;;;;;;;17.65;5.72;;;9.40;99.90;;;;;;5074985;28;20055;-77
2022/06/21 02:09:22;;;;;;;17.38;4.90;;;9.40;99.90;;;;;;5074991;28;20075;-76
2022/06/21 02:12:09;;;;;;;16.40;5.50;;;9.40;99.90;;;;;;5074127;28;20052;-78
2022/06/21 02:14:39;;;;;;;22.40;5.32;;;9.50;99.90;;;;;;5074587;28;20059;-76
2022/06/21 02:17:25;;;;;;;13.35;5.20;;;9.50;99.90;;;;;;5075397;28;20554;-75
2022/06/21 02:20:07;;;;;;;11.65;4.47;;;9.40;99.90;;;;;;5073205;28;20110;-77
2022/06/21 02:22:34;;;;;;;9.23;4.25;;;9.40;99.90;;;;;;5074434;28;20078;-75
2022/06/21 02:25:01;;;;;;;12.70;4.35;;;9.40;99.90;;;;;;5039808;28;20087;-74
2022/06/21 02:27:33;;;;;;;13.45;4.43;;;9.40;99.90;;;;;;5072512;28;20044;-74
2022/06/21 02:30:02;;;;;;;13.52;4.75;;;9.40;99.90;;;;;;5107114;28;20056;-75
2022/06/21 02:32:39;;;;;;;11.27;4.05;;;9.40;99.90;;;;;;5073694;28;20119;-74
2022/06/21 02:35:05;;;;;;;15.85;4.18;;;9.30;99.90;;;;;;5073842;28;20443;-74
2022/06/21 02:37:33;;;;;;;14.50;4.28;;;9.30;99.90;;;;;;5072075;28;20064;-74
2022/06/21 02:40:01;;;;;;;16.58;4.45;;;9.30;99.90;;;;;;5072352;28;20066;-74
2022/06/21 02:42:31;;;;;;;16.80;5.35;;;9.20;99.90;;;;;;5073277;28;20088;-76
2022/06/21 02:45:07;;;;;;;15.63;5.00;;;9.10;99.90;;;;;;5073106;28;20044;-76
2022/06/21 02:47:39;;;;;;;9.75;4.72;;;9.10;99.90;;;;;;5072472;28;20140;-76
2022/06/21 02:50:17;;;;;;;17.02;5.43;;;9.10;99.90;;;;;;5072178;28;20048;-76
2022/06/21 02:52:43;;;;;;;12.50;4.72;;;9.00;99.90;;;;;;5073840;28;20079;-76
2022/06/21 02:55:35;;;;;;;13.43;4.82;;;9.00;99.90;;;;;;5055365;28;20048;-75
2022/06/21 02:58:20;;;;;;;15.57;5.10;;;9.00;99.90;;;;;;5072923;28;20044;-75
2022/06/21 03:00:46;;;;;;;14.75;5.60;;;9.00;99.90;;;;;;5072899;28;20045;-76
2022/06/21 03:03:20;;;;;;;15.90;5.60;;;9.00;99.90;;;;;;5071411;28;20045;-76
2022/06/21 03:05:50;;;;;;;15.57;5.18;;;9.00;99.90;;;;;;5071631;28;20112;-76
2022/06/21 03:08:17;;;;;;;11.65;5.10;;;9.00;99.90;;;;;;5072749;28;20091;-76
2022/06/21 03:10:46;;;;;;;13.15;4.38;;;8.90;99.90;;;;;;5072566;28;20109;-77
2022/06/21 03:13:21;;;;;;;13.38;5.03;;;8.90;99.90;;;;;;5072659;28;20091;-76
2022/06/21 03:16:04;;;;;;;16.25;5.55;;;8.80;99.90;;;;;;5076494;28;20044;-75
2022/06/21 03:18:36;;;;;;;13.70;5.18;;;8.80;99.90;;;;;;5072424;28;20048;-76
2022/06/21 03:21:03;;;;;;;14.02;5.30;;;8.80;99.90;;;;;;5073030;28;20105;-76
2022/06/21 03:23:30;;;;;;;13.80;5.05;;;8.80;99.90;;;;;;5073153;28;20143;-76
2022/06/21 03:26:02;;;;;;;14.75;5.20;;;8.90;99.90;;;;;;5055116;28;20048;-76
2022/06/21 03:28:45;;;;;;;13.30;5.07;;;8.80;99.90;;;;;;5072958;28;20055;-76
2022/06/21 03:31:39;;;;;;;11.30;5.20;;;8.90;99.90;;;;;;5072598;28;20048;-75
2022/06/21 03:34:09;;;;;;;12.57;4.75;;;8.80;99.90;;;;;;5072418;28;20178;-75
2022/06/21 03:36:35;;;;;;;12.50;4.97;;;8.80;99.90;;;;;;5072731;28;20053;-75
2022/06/21 03:39:05;;;;;;;10.32;4.88;;;8.80;99.90;;;;;;5071463;28;20063;-77
2022/06/21 03:41:43;;;;;;;10.85;4.82;;;8.80;99.90;;;;;;5072517;28;20067;-76
2022/06/21 03:44:29;;;;;;;11.00;4.50;;;8.80;99.90;;;;;;5054739;28;20040;-76
2022/06/21 03:47:35;;;;;;;10.30;4.32;;;8.90;99.90;;;;;;5075263;28;20511;-75
2022/06/21 03:50:39;;;;;;;11.30;3.95;;;9.00;99.90;;;;;;5070039;28;20105;-77
2022/06/21 03:53:15;;;;;;;7.68;3.85;;;9.00;99.90;;;;;;5073009;28;20053;-75
2022/06/21 03:55:51;;;;;;;11.43;4.10;;;9.10;99.90;;;;;;5072512;28;20052;-76
2022/06/21 03:58:50;;;;;;;7.55;3.72;;;9.10;99.90;;;;;;5072675;28;20044;-76
2022/06/21 04:01:19;;;;;;;7.95;4.18;;;9.20;99.90;;;;;;5054649;28;20518;-75
2022/06/21 04:03:57;;;;;;;9.05;3.85;;;9.10;99.90;;;;;;5071317;28;20040;-75
2022/06/21 04:06:30;;;;;;;13.65;4.97;;;9.20;99.90;;;;;;5072538;28;20487;-76
2022/06/21 04:09:07;;;;;;;13.00;4.68;;;9.20;99.90;;;;;;5055339;28;20045;-76
2022/06/21 04:11:38;;;;;;;16.38;5.22;;;9.20;99.90;;;;;;5074217;28;20109;-76
2022/06/21 04:14:14;;;;;;;13.55;4.97;;;9.30;99.90;;;;;;5077628;28;20095;-79
2022/06/21 04:17:25;;;;;;;10.13;4.75;;;9.40;99.90;;;;;;5077320;28;20134;-77
2022/06/21 04:19:51;;;;;;;9.98;4.68;;;9.60;99.90;;;;;;5075406;28;20082;-76
2022/06/21 04:22:31;;;;;;;14.43;5.78;;;9.80;99.90;;;;;;5076400;28;20057;-77
2022/06/21 04:25:09;;;;;;;17.42;5.80;;;10.00;99.90;;;;;;5076708;28;20094;-76
2022/06/21 04:27:52;;;;;;;19.00;6.78;;;10.20;99.90;;;;;;5076795;28;20104;-77
2022/06/21 04:30:25;;;;;;;12.90;6.10;;;10.40;99.90;;;;;;5075603;28;20041;-75
2022/06/21 04:33:17;;;;;;;13.10;5.53;;;10.60;99.90;;;;;;5078762;28;20088;-76
2022/06/21 04:35:52;;;;;;;17.83;6.20;;;10.80;99.90;;;;;;5078925;28;20094;-75
2022/06/21 04:38:43;;;;;;;16.17;6.53;;;11.00;99.90;;;;;;5079069;28;20040;-75
2022/06/21 04:41:23;;;;;;;16.38;7.32;;;11.10;99.90;;;;;;5076317;28;20055;-74
2022/06/21 04:43:59;;;;;;;17.15;6.22;;;11.20;99.90;;;;;;5076541;28;20134;-75
2022/06/21 04:46:51;;;;;;;13.55;5.70;;;11.30;99.90;;;;;;5074823;28;20094;-77
2022/06/21 04:49:22;;;;;;;18.08;6.03;;;11.30;99.90;;;;;;5071877;28;20075;-75
2022/06/21 04:51:54;;;;;;;14.02;6.72;;;11.20;99.90;;;;;;5075601;28;20044;-76
2022/06/21 04:54:27;;;;;;;16.15;6.50;;;11.20;99.90;;;;;;5076518;28;20440;-76
2022/06/21 04:56:57;;;;;;;16.10;6.65;;;11.20;99.90;;;;;;5074087;28;20390;-77
2022/06/21 04:59:50;;;;;;;15.68;6.10;;;11.20;99.90;;;;;;5075187;28;20131;-76
2022/06/21 05:02:28;;;;;;;17.88;7.05;;;11.20;99.90;;;;;;5075124;28;20049;-75
2022/06/21 05:05:04;;;;;;;16.65;6.43;;;11.10;99.90;;;;;;5077033;28;20044;-75
2022/06/21 05:07:42;;;;;;;12.87;5.93;;;11.10;99.90;;;;;;5074331;28;20041;-75
2022/06/21 05:10:15;;;;;;;12.98;6.20;;;11.20;99.90;;;;;;5075672;28;20045;-76
2022/06/21 05:12:42;;;;;;;14.65;6.32;;;11.20;99.90;;;;;;5075288;28;20094;-76
2022/06/21 05:15:25;;;;;;;14.90;6.10;;;11.20;99.90;;;;;;5074051;28;20190;-76
2022/06/21 05:18:06;;;;;;;16.17;6.60;;;11.20;99.90;;;;;;5092470;28;20061;-76
2022/06/21 05:20:35;;;;;;;14.52;6.35;;;11.20;99.90;;;;;;5074874;28;20044;-77
2022/06/21 05:23:04;;;;;;;20.50;6.97;;;11.30;99.90;;;;;;5074923;28;20123;-76
2022/06/21 05:25:37;;;;;;;17.05;6.53;;;11.30;99.90;;;;;;5074891;28;20127;-77
2022/06/21 05:28:12;;;;;;;13.73;7.35;;;11.40;99.90;;;;;;5077937;28;20128;-77
2022/06/21 05:30:54;;;;;;;18.58;5.85;;;11.40;99.90;;;;;;5078953;28;20049;-76
2022/06/21 05:33:43;;;;;;;17.55;5.80;;;11.50;99.90;;;;;;5079521;28;20114;-76
2022/06/21 05:36:17;;;;;;;17.33;6.40;;;11.60;99.90;;;;;;5080448;28;20052;-76
2022/06/21 05:38:58;;;;;;;13.57;6.45;;;11.70;99.90;;;;;;5080220;28;20059;-76
2022/06/21 05:41:33;;;;;;;15.15;6.25;;;11.70;99.90;;;;;;5083550;28;20048;-74
2022/06/21 05:44:10;;;;;;;16.35;6.63;;;11.80;99.90;;;;;;5068616;28;20040;-75
2022/06/21 05:46:44;;;;;;;15.13;7.35;;;11.90;99.90;;;;;;5090741;28;20051;-75
2022/06/21 05:49:29;;;;;;;19.65;7.20;;;11.90;99.90;;;;;;5070781;28;20079;-76
2022/06/21 05:51:58;;;;;;;22.00;7.72;;;12.00;99.90;;;;;;5081056;28;20048;-76
2022/06/21 05:54:31;;;;;;;20.45;8.20;;;12.10;99.90;;;;;;5078828;28;20040;-77
2022/06/21 05:57:00;;;;;;;18.38;7.30;;;12.30;99.90;;;;;;5082885;28;20040;-75
2022/06/21 05:59:26;;;;;;;19.35;6.90;;;12.40;99.90;;;;;;5085394;28;20083;-77
2022/06/21 06:01:58;;;;;;;18.23;7.47;;;12.50;99.90;;;;;;5078573;28;20048;-75
2022/06/21 06:04:56;;;;;;;14.18;5.90;;;12.60;99.90;;;;;;5076228;28;20049;-77
2022/06/21 06:07:34;;;;;;;17.75;5.45;;;12.80;99.90;;;;;;5074828;28;20345;-76
2022/06/21 06:10:03;;;;;;;17.50;5.20;;;12.90;99.90;;;;;;5076386;28;20052;-77
2022/06/21 06:12:46;;;;;;;16.55;6.50;;;13.00;99.90;;;;;;5076044;28;20044;-76
2022/06/21 06:15:23;;;;;;;19.17;6.60;;;13.10;99.90;;;;;;5073755;28;20131;-77
2022/06/21 06:17:56;;;;;;;16.88;5.38;;;13.20;99.90;;;;;;5056733;28;20053;-75
2022/06/21 06:20:31;;;;;;;15.50;5.55;;;13.30;99.90;;;;;;5073949;28;20048;-75
2022/06/21 06:23:17;;;;;;;14.15;5.25;;;13.40;99.90;;;;;;5073500;28;20473;-76
2022/06/21 06:25:45;;;;;;;15.63;6.13;;;13.50;99.90;;;;;;5074272;28;20063;-75
2022/06/21 06:28:40;;;;;;;16.95;5.97;;;13.50;99.90;;;;;;5075052;28;20132;-75
2022/06/21 06:31:23;;;;;;;16.83;6.20;;;13.60;99.90;;;;;;5063710;28;20065;-76
2022/06/21 06:33:57;;;;;;;15.07;6.78;;;13.80;99.90;;;;;;5072088;28;20052;-76
2022/06/21 06:36:29;;;;;;;17.40;5.95;;;13.90;99.90;;;;;;5073486;28;20102;-77
2022/06/21 06:38:58;;;;;;;15.05;6.05;;;14.00;99.90;;;;;;5072208;28;20048;-77
2022/06/21 06:41:40;;;;;;;11.68;5.30;;;14.10;99.90;;;;;;5073584;28;20460;-75
2022/06/21 06:44:12;;;;;;;13.57;5.03;;;14.00;99.90;;;;;;5072378;28;20083;-75
2022/06/21 06:46:49;;;;;;;17.17;4.88;;;14.10;99.90;;;;;;5056001;28;20048;-76
2022/06/21 06:49:35;;;;;;;13.75;5.38;;;14.20;99.90;;;;;;5073086;28;20051;-76
2022/06/21 06:52:32;;;;;;;15.90;5.20;;;14.40;99.90;;;;;;5072902;28;20453;-76
2022/06/21 06:55:08;;;;;;;16.27;5.07;;;14.70;99.90;;;;;;5073877;28;20044;-77
2022/06/21 06:57:52;;;;;;;11.75;5.03;;;14.80;99.90;;;;;;5072425;28;20117;-77
2022/06/21 07:00:17;;;;;;;14.90;4.55;;;15.00;99.90;;;;;;5055458;28;20055;-76
2022/06/21 07:02:56;;;;;;;10.25;4.07;;;15.30;99.90;;;;;;5072392;28;20040;-76
2022/06/21 07:05:37;;;;;;;12.57;4.40;;;15.40;99.90;;;;;;5073214;28;20048;-77
2022/06/21 07:08:15;;;;;;;12.73;3.60;;;15.80;99.90;;;;;;5072955;28;20131;-77
2022/06/21 07:10:41;;;;;;;11.77;3.22;;;16.20;99.90;;;;;;5071773;28;20100;-76
2022/06/21 07:13:08;;;;;;;13.50;3.33;;;16.50;99.90;;;;;;5073044;28;20052;-76
2022/06/21 07:15:39;;;;;;;13.10;3.28;;;16.60;99.90;;;;;;5055149;28;20157;-77
2022/06/21 07:18:13;;;;;;;13.13;3.60;;;16.60;99.90;;;;;;5072185;28;20469;-77
2022/06/21 07:20:44;;;;;;;12.25;3.15;;;16.70;99.90;;;;;;5073078;28;20135;-78
2022/06/21 07:23:16;;;;;;;8.80;2.88;;;16.60;99.90;;;;;;5055148;28;20121;-75
2022/06/21 07:25:45;;;;;;;8.48;3.35;;;16.50;99.90;;;;;;5072817;28;20507;-76
2022/06/21 07:28:21;;;;;;;10.75;4.03;;;16.30;99.90;;;;;;5071746;28;20083;-78
2022/06/21 07:30:51;;;;;;;15.00;3.80;;;16.20;99.90;;;;;;5072142;28;20139;-76
2022/06/21 07:33:41;;;;;;;13.73;3.13;;;16.10;99.90;;;;;;5059138;28;20098;-77
2022/06/21 07:36:10;;;;;;;9.05;2.50;;;16.20;99.90;;;;;;5075079;28;20408;-77
2022/06/21 07:38:49;;;;;;;11.30;2.17;;;16.30;99.90;;;;;;5072114;28;20044;-76
2022/06/21 07:41:29;;;;;;;9.20;2.53;;;16.20;99.90;;;;;;5072734;28;20101;-78
2022/06/21 07:43:58;;;;;;;13.13;2.92;;;16.30;99.90;;;;;;5054975;28;20132;-79
2022/06/21 07:46:51;;;;;;;9.52;2.88;;;16.20;99.90;;;;;;5079080;28;20052;-79
2022/06/21 07:49:38;;;;;;;13.05;3.38;;;16.10;99.90;;;;;;5079599;28;20502;-76
2022/06/21 07:52:10;;;;;;;13.85;3.50;;;15.80;99.90;;;;;;5077861;28;20060;-77
2022/06/21 07:54:51;;;;;;;17.02;4.20;;;15.90;99.90;;;;;;5078484;28;20044;-77
2022/06/21 07:57:40;;;;;;;12.07;3.40;;;15.90;99.90;;;;;;5079435;28;20456;-77
2022/06/21 08:00:20;;;;;;;10.82;3.55;;;15.80;99.90;;;;;;5079728;28;20084;-76
2022/06/21 08:09:03;;;;;;;10.60;3.38;;;16.20;99.90;;;;;;5078239;28;20507;-77
2022/06/21 08:11:36;;;;;;;10.18;2.58;;;16.40;99.90;;;;;;5078287;28;20480;-76
2022/06/21 08:14:02;;;;;;;9.88;3.10;;;16.50;99.90;;;;;;5079817;28;20052;-79
2022/06/21 08:16:54;;;;;;;13.68;3.80;;;16.60;99.90;;;;;;5079392;28;20504;-78
2022/06/21 08:19:44;;;;;;;14.50;3.45;;;16.80;99.90;;;;;;5077886;28;20059;-78
2022/06/21 08:22:22;;;;;;;10.00;2.90;;;16.70;99.90;;;;;;5077887;28;20044;-77
2022/06/21 08:25:20;;;;;;;16.30;2.90;;;16.80;99.90;;;;;;5111999;28;20040;-79
2022/06/21 08:28:01;;;;;;;10.18;2.45;;;16.90;99.90;;;;;;5038960;28;20060;-78
2022/06/21 08:30:39;;;;;;;9.77;2.20;;;17.10;99.90;;;;;;5078961;28;20040;-78
2022/06/21 08:33:11;;;;;;;12.48;2.35;;;17.20;99.90;;;;;;5079781;28;20044;-78
2022/06/21 08:36:05;;;;;;;10.07;2.70;;;17.20;99.90;;;;;;5077996;28;20044;-77
2022/06/21 08:38:52;;;;;;;6.38;2.60;;;17.30;99.90;;;;;;5061498;28;20048;-77
2022/06/21 08:41:52;;;;;;;8.10;2.63;;;17.00;99.90;;;;;;5078431;28;20131;-76
2022/06/21 08:44:39;;;;;;;11.52;2.90;;;16.90;99.90;;;;;;5079586;28;20040;-78
2022/06/21 08:47:34;;;;;;;12.25;2.72;;;17.10;99.90;;;;;;5078192;28;20048;-79
2022/06/21 08:50:17;;;;;;;9.93;3.30;;;17.40;99.90;;;;;;5062949;28;20480;-78
2022/06/21 08:53:24;;;;;;;10.55;2.15;;;17.60;99.90;;;;;;5078000;28;20127;-80
2022/06/21 08:56:04;;;;;;;10.88;2.40;;;17.80;99.90;;;;;;5077826;28;20083;-79
2022/06/21 08:58:35;;;;;;;12.13;2.47;;;17.80;99.90;;;;;;5074689;28;20484;-77
2022/06/21 09:01:30;;;;;;;7.82;1.83;;;17.80;99.90;;;;;;5076049;28;20091;-77
2022/06/21 09:04:20;;;;;;;10.07;1.75;;;17.80;99.90;;;;;;5075758;28;20037;-77
2022/06/21 09:07:18;;;;;;;14.48;2.38;;;17.70;99.90;;;;;;5058453;28;20056;-78
2022/06/21 09:10:06;;;;;;;10.07;2.05;;;17.90;99.90;;;;;;5063564;28;20049;-78
2022/06/21 09:12:47;;;;;;;10.15;2.92;;;17.90;99.90;;;;;;5075952;28;20101;-79
2022/06/21 09:15:30;;;;;;;8.57;2.25;;;17.90;99.90;;;;;;5074579;28;20045;-78
2022/06/21 09:18:20;;;;;;;10.27;2.40;;;18.10;99.90;;;;;;5057620;28;20404;-76
2022/06/21 09:21:04;;;;;;;8.93;2.60;;;18.30;99.90;;;;;;5076824;28;20500;-79
2022/06/21 09:24:00;;;;;;;10.45;2.70;;;18.50;99.90;;;;;;5079564;28;20044;-78
2022/06/21 09:26:39;;;;;;;11.93;3.13;;;18.60;99.90;;;;;;5077677;28;20087;-73
2022/06/21 09:29:21;;;;;;;9.13;3.47;;;18.60;99.90;;;;;;5075422;28;20044;-75
2022/06/21 09:32:02;;;;;;;8.10;2.50;;;18.50;99.90;;;;;;5074821;28;20102;-77
2022/06/21 09:34:58;;;;;;;10.07;2.83;;;18.50;99.90;;;;;;5057901;28;20369;-76
2022/06/21 09:37:37;;;;;;;;;;;18.50;99.90;;;;;;5075075;28;20057;-80
2022/06/21 09:40:30;;;;;;;10.13;2.50;;;18.40;99.90;;;;;;5075038;28;19924;-78
2022/06/21 09:43:15;;;;;;;11.80;3.00;;;18.40;99.90;;;;;;5065012;28;20071;-79
2022/06/21 09:46:05;;;;;;;9.20;2.55;;;18.30;99.90;;;;;;5075100;28;20049;-78
2022/06/21 09:48:55;;;;;;;11.73;3.50;;;18.60;99.90;;;;;;5074006;28;20064;-77
2022/06/21 09:51:46;;;;;;;9.75;3.20;;;18.60;99.90;;;;;;5074444;28;20040;-77
2022/06/21 09:54:29;;;;;;;13.65;3.45;;;18.90;99.90;;;;;;5075517;28;20045;-78
2022/06/21 09:57:16;;;;;;;12.07;3.13;;;19.00;99.90;;;;;;5074112;28;20140;-77
2022/06/21 10:00:13;;;;;;;11.25;3.50;;;18.90;99.90;;;;;;5075918;28;20055;-76
2022/06/21 10:02:52;;;;;;;10.88;3.17;;;19.00;99.90;;;;;;5042625;28;20063;-77
2022/06/21 10:05:26;;;;;;;12.90;3.38;;;19.10;99.90;;;;;;5078870;28;20040;-77
2022/06/21 10:08:03;;;;;;;11.32;3.17;;;19.20;99.90;;;;;;5060825;28;20044;-77
2022/06/21 10:11:04;;;;;;;8.45;2.80;;;19.40;99.90;;;;;;5078173;28;20040;-77
2022/06/21 10:13:52;;;;;;;9.90;2.78;;;19.30;99.90;;;;;;5064645;28;20057;-78
2022/06/21 10:16:26;;;;;;;13.10;2.90;;;19.00;98.50;;;;;;5075064;28;20097;-77
2022/06/21 10:18:52;;;;;;;6.60;1.92;;;19.20;98.40;;;;;;5073225;28;20056;-75
2022/06/21 10:21:51;;;;;;;9.90;2.47;;;19.20;95.90;;;;;;5058012;28;20056;-78
2022/06/21 10:24:36;;;;;;;9.23;2.60;;;19.30;95.40;;;;;;5075854;28;20513;-77
2022/06/21 10:27:23;;;;;;;8.20;2.75;;;19.40;96.60;;;;;;5059170;28;20044;-76
2022/06/21 10:30:25;;;;;;;13.02;3.00;;;19.50;96.30;;;;;;5076888;28;20049;-76
2022/06/21 10:33:15;;;;;;;12.70;3.28;;;19.50;96.30;;;;;;5059160;28;20129;-76
2022/06/21 10:36:03;;;;;;;12.25;3.13;;;19.40;94.30;;;;;;5076187;28;20094;-78
2022/06/21 10:38:58;;;;;;;12.55;2.83;;;19.40;95.30;;;;;;5056566;28;20089;-76
2022/06/21 10:45:11;;;;;;;5.50;2.50;;;19.70;95.20;;;;;;5068315;28;20053;-77
2022/06/21 10:48:15;;;;;;;12.13;2.40;;;19.60;93.90;;;;;;5073183;28;20098;-77
2022/06/21 10:50:58;;;;;;;9.40;3.00;;;19.80;94.50;;;;;;5055783;28;20052;-78
2022/06/21 10:53:45;;;;;;;7.25;1.90;;;20.00;94.80;;;;;;5072581;28;20063;-78
2022/06/21 11:02:49;;;;;;;7.72;1.30;;;20.20;91.40;;;;;;5073059;28;20044;-77
2022/06/21 11:05:45;;;;;;;4.32;0.75;;;20.50;86.30;;;;;;5073428;28;20052;-77
2022/06/21 11:08:22;;;;;;;;;;;20.50;76.00;;;;;;5074276;28;20131;-77
2022/06/21 11:10:56;;;;;;;6.95;0.90;;;20.20;76.80;;;;;;5072141;28;19943;-78
2022/06/21 11:13:34;;;;;;;5.90;0.95;;;20.50;77.40;;;;;;5072712;28;20098;-76
2022/06/21 11:16:14;;;;;;;4.03;0.80;;;20.60;71.60;;;;;;5073944;28;20484;-75
2022/06/21 11:19:00;;;;;;;4.18;0.98;;;20.50;73.20;;;;;;5057393;28;20045;-77
2022/06/21 11:21:26;;;;;;;;;;;20.60;73.20;;;;;;5107284;28;20052;-76
2022/06/21 11:24:31;;;;;;;6.63;1.40;;;20.80;76.60;;;;;;5073984;28;19932;-77
2022/06/21 11:27:15;;;;;;;10.25;1.30;;;21.00;75.70;;;;;;5073123;28;20044;-77
2022/06/21 11:30:01;;;;;;;6.25;1.10;;;20.80;73.80;;;;;;5073032;28;20447;-78
2022/06/21 11:32:36;;;;;;;5.63;0.80;;;20.80;73.30;;;;;;5073767;28;20526;-77
2022/06/21 11:35:39;;;;;;;6.53;1.73;;;20.50;67.60;;;;;;5074882;28;20514;-80
2022/06/21 11:38:36;;;;;;;6.97;1.15;;;20.60;69.10;;;;;;5074803;28;20064;-80
2022/06/21 11:41:05;;;;;;;6.30;1.58;;;20.80;73.30;;;;;;5073466;28;20095;-77
2022/06/21 11:43:48;;;;;;;6.43;1.50;;;20.70;69.80;;;;;;5072545;28;20143;-77
2022/06/21 11:46:18;;;;;;;10.13;1.77;;;20.50;71.30;;;;;;5073804;28;20088;-77
2022/06/21 11:49:08;;;;;;;7.60;1.70;;;20.20;71.80;;;;;;5072837;28;20056;-80
2022/06/21 11:52:10;;;;;;;7.93;1.58;;;20.70;73.30;;;;;;5073628;28;20139;-77
2022/06/21 11:54:46;;;;;;;9.18;1.38;;;21.00;74.60;;;;;;5072697;28;20218;-75
2022/06/21 11:57:15;;;;;;;6.10;1.30;;;21.20;70.20;;;;;;5071238;28;20105;-76
2022/06/21 11:59:54;;;;;;;8.20;1.58;;;21.10;70.40;;;;;;5072020;28;20056;-76
2022/06/21 12:02:43;;;;;;;9.55;2.13;;;20.90;72.80;;;;;;5071625;28;20040;-75
2022/06/21 12:05:37;;;;;;;10.70;2.83;;;20.80;71.60;;;;;;5073646;28;20059;-78
2022/06/21 12:08:22;;;;;;;7.38;1.90;;;20.90;73.30;;;;;;5054766;28;20488;-78
2022/06/21 12:10:52;;;;;;;7.75;1.98;;;20.80;71.70;;;;;;5076828;28;20049;-78
2022/06/21 12:13:30;;;;;;;5.13;1.98;;;20.80;70.70;;;;;;5073216;28;20047;-78
2022/06/21 12:16:25;;;;;;;7.28;1.77;;;20.80;71.70;;;;;;5055032;28;20041;-77
2022/06/21 12:19:03;;;;;;;8.50;1.90;;;21.10;72.20;;;;;;5073079;28;20396;-79
2022/06/21 12:21:35;;;;;;;8.73;1.92;;;20.90;70.30;;;;;;5072541;28;20067;-79
2022/06/21 12:24:06;;;;;;;9.18;2.03;;;21.00;70.30;;;;;;5071825;28;20040;-76
2022/06/21 12:26:34;;;;;;;5.82;1.80;;;21.00;70.70;;;;;;5055232;28;20056;-77
2022/06/21 12:29:01;;;;;;;8.48;1.63;;;21.40;72.20;;;;;;5073237;28;20037;-80
2022/06/21 12:31:33;;;;;;;7.28;1.70;;;21.50;68.80;;;;;;5072882;28;20106;-80
2022/06/21 12:34:06;;;;;;;8.18;2.17;;;21.50;67.60;;;;;;5058771;28;20392;-78
2022/06/21 12:36:51;;;;;;;7.70;2.40;;;21.50;69.00;;;;;;5075215;28;20056;-79
2022/06/21 12:39:43;;;;;;;7.18;2.78;;;21.90;69.60;;;;;;5074759;28;20037;-77
2022/06/21 12:42:27;;;;;;;8.88;2.58;;;21.50;68.30;;;;;;5068792;28;20373;-78
2022/06/21 12:45:01;;;;;;;7.38;2.13;;;21.60;68.00;;;;;;5057685;28;20220;-78
2022/06/21 12:47:41;;;;;;;7.70;2.03;;;21.80;69.60;;;;;;5074699;28;20141;-78
2022/06/21 12:50:19;;;;;;;6.13;1.80;;;22.10;69.00;;;;;;5058055;28;20119;-76
2022/06/21 12:52:54;;;;;;;7.25;2.15;;;22.70;68.90;;;;;;5075418;28;20049;-79
2022/06/21 12:55:37;;;;;;;11.38;1.90;;;23.00;69.70;;;;;;5076600;28;20075;-77
2022/06/21 12:58:52;;;;;;;8.13;2.10;;;23.20;64.30;;;;;;5076121;28;20049;-76
2022/06/21 13:01:22;;;;;;;;;;;23.40;68.10;;;;;;5075157;28;20048;-77
2022/06/21 13:03:53;;;;;;;9.45;2.33;;;23.40;67.50;;;;;;5076359;28;20276;-80
2022/06/21 13:06:25;;;;;;;6.75;2.20;;;23.10;65.90;;;;;;5075657;28;20413;-81
2022/06/21 13:08:58;;;;;;;7.13;2.35;;;22.50;65.70;;;;;;5075092;28;20041;-78
2022/06/21 13:11:39;;;;;;;5.15;2.00;;;22.70;67.60;;;;;;5074846;28;20045;-78
2022/06/21 13:14:32;;;;;;;7.80;1.70;;;23.00;68.30;;;;;;5076216;28;20092;-77
2022/06/21 13:17:04;;;;;;;5.88;2.30;;;22.80;67.30;;;;;;5076868;28;20056;-77
2022/06/21 13:20:00;;;;;;;6.10;1.80;;;23.10;68.30;;;;;;5077075;28;20136;-78
2022/06/21 13:22:42;;;;;;;6.15;1.75;;;23.30;65.70;;;;;;5066805;28;20053;-78
2022/06/21 13:25:14;;;;;;;6.88;1.60;;;23.30;66.30;;;;;;5063272;28;20064;-77
2022/06/21 13:27:51;;;;;;;10.00;2.15;;;23.30;65.70;;;;;;5069225;28;20048;-79
2022/06/21 13:30:32;;;;;;;4.97;1.70;;;23.70;65.20;;;;;;5080448;28;20101;-77
2022/06/21 13:33:13;;;;;;;6.38;1.50;;;23.60;63.20;;;;;;5074599;28;20053;-80
2022/06/21 13:36:11;;;;;;;6.18;1.80;;;23.90;63.10;;;;;;5074962;28;20135;-79
2022/06/21 13:38:50;;;;;;;6.85;1.48;;;23.10;61.80;;;;;;5071963;28;20390;-78
2022/06/21 13:44:37;;;;;;;7.32;2.13;;;23.80;62.30;;;;;;5074617;28;20053;-78
2022/06/21 13:47:13;;;;;;;8.70;1.67;;;23.30;62.40;;;;;;5074700;28;20453;-78
2022/06/21 13:49:45;;;;;;;5.40;1.25;;;23.80;63.40;;;;;;5074707;28;20476;-78
2022/06/21 13:52:34;;;;;;;9.95;1.80;;;23.80;63.40;;;;;;5091849;28;20056;-79
2022/06/21 13:55:15;;;;;;;9.55;2.00;;;23.30;60.60;;;;;;5075704;28;20052;-80
2022/06/21 13:57:53;;;;;;;3.60;1.70;;;23.60;62.80;;;;;;5075859;28;20488;-79
2022/06/21 14:00:30;;;;;;;5.13;1.55;;;22.90;60.40;;;;;;5074579;28;20048;-78
2022/06/21 14:03:21;;;;;;;6.97;1.65;;;22.80;61.80;;;;;;5074424;28;20047;-80